LIPZ/VCE METAR and TAF weather

Enter ICAO airport designator
Station Type Date Time Source
LIPZ METAR 2020/08/06 00:50 UTC NOAA

LIPZ 060050Z 32005KT CAVOK 19/17 Q1015 NOSIG


Station Type Date Time Source
LIPZ Decoded METAR 2020/08/06 00:50 UTC NOAA

Venezia / Tessera, Italy (LIPZ) 45-30N 012-20E 6M
Aug 05, 2020 - 08:50 PM EDT / 2020.08.06 0050 UTC
Wind: from the NW (320 degrees) at 6 MPH (5 KT):0
Visibility: greater than 7 mile(s):0
Temperature: 66 F (19 C)
Dew Point: 62 F (17 C)
Relative Humidity: 88%
Pressure (altimeter): 29.97 in. Hg (1015 hPa)
ob: LIPZ 060050Z 32005KT CAVOK 19/17 Q1015 NOSIG
cycle: 1

Station Type Date Time Source
LIPZ TAF 2020/08/05 18:25 UTC NOAA

TAF LIPZ 051700Z 0518/0624 08015KT CAVOK
BECMG 0602/0604 34008KT
BECMG 0609/0612 VRB05KT
BECMG 0619/0621 04015KT PROB40
TEMPO 0621/0624 TSRA

Example: see airport list